createdAt,value
2022-11-16T00:01:17.753Z,9.93
2022-11-16T00:03:44.779Z,6.80
2022-11-16T00:06:13.398Z,8.43
2022-11-16T00:08:44.041Z,9.90
2022-11-16T00:11:13.355Z,7.40
2022-11-16T00:13:41.484Z,6.00
2022-11-16T00:16:13.187Z,6.47
2022-11-16T00:18:40.116Z,5.43
2022-11-16T00:21:07.090Z,5.50
2022-11-16T00:23:36.327Z,11.13
2022-11-16T00:26:07.729Z,6.83
2022-11-16T00:28:35.330Z,5.30
2022-11-16T00:31:05.589Z,7.23
2022-11-16T00:33:33.005Z,8.57
2022-11-16T00:36:04.608Z,5.60
2022-11-16T00:38:32.401Z,9.73
2022-11-16T00:40:59.415Z,8.63
2022-11-16T00:43:26.862Z,7.50
2022-11-16T00:45:53.981Z,6.40
2022-11-16T00:48:21.103Z,9.57
2022-11-16T00:50:47.980Z,6.23
2022-11-16T00:53:18.557Z,8.50
2022-11-16T00:55:46.578Z,11.23
2022-11-16T00:58:14.460Z,6.90
2022-11-16T01:00:42.381Z,7.53
2022-11-16T01:03:09.520Z,5.47
2022-11-16T01:05:36.308Z,10.10
2022-11-16T01:08:03.512Z,5.87
2022-11-16T01:10:30.257Z,5.70
2022-11-16T01:12:57.132Z,10.50
2022-11-16T01:15:26.329Z,7.47
2022-11-16T01:17:55.103Z,6.90
2022-11-16T01:20:24.804Z,7.10
2022-11-16T01:22:51.959Z,5.67
2022-11-16T01:25:18.919Z,5.20
2022-11-16T01:27:46.033Z,6.57
2022-11-16T01:30:14.696Z,5.53
2022-11-16T01:32:41.569Z,4.43
2022-11-16T01:35:08.471Z,4.97
2022-11-16T01:37:35.499Z,5.47
2022-11-16T01:40:02.255Z,5.70
2022-11-16T01:42:30.744Z,7.57
2022-11-16T01:45:02.600Z,5.77
2022-11-16T01:47:29.974Z,4.50
2022-11-16T01:50:03.115Z,6.53
2022-11-16T01:52:33.967Z,5.70
2022-11-16T01:55:02.202Z,4.73
2022-11-16T01:57:35.681Z,5.30
2022-11-16T02:00:05.356Z,5.97
2022-11-16T02:02:32.310Z,7.70
2022-11-16T02:05:00.372Z,5.93
2022-11-16T02:08:08.870Z,5.83
2022-11-16T02:11:00.424Z,8.67
2022-11-16T02:13:58.110Z,7.20
2022-11-16T02:16:49.616Z,6.07
2022-11-16T02:20:00.194Z,7.87
2022-11-16T02:22:53.055Z,6.20
2022-11-16T02:25:28.043Z,6.20
2022-11-16T02:28:32.441Z,7.10
2022-11-16T02:31:04.791Z,6.10
2022-11-16T02:33:36.322Z,7.13
2022-11-16T02:36:06.778Z,9.30
2022-11-16T02:38:38.903Z,8.03
2022-11-16T02:41:10.905Z,7.33
2022-11-16T02:43:48.371Z,6.40
2022-11-16T02:46:22.774Z,7.20
2022-11-16T02:51:22.231Z,9.23
2022-11-16T02:54:16.172Z,10.17
2022-11-16T02:56:58.225Z,12.17
2022-11-16T02:59:32.932Z,7.07
2022-11-16T03:02:32.168Z,6.83
2022-11-16T03:05:11.675Z,7.80
2022-11-16T03:07:45.351Z,5.50
2022-11-16T03:10:32.826Z,6.37
2022-11-16T03:13:03.666Z,6.63
2022-11-16T03:15:30.701Z,8.00
2022-11-16T03:18:00.252Z,6.60
2022-11-16T03:20:30.300Z,7.60
2022-11-16T03:23:03.648Z,10.43
2022-11-16T03:25:36.515Z,6.93
2022-11-16T03:28:12.260Z,9.20
2022-11-16T03:30:50.696Z,7.23
2022-11-16T03:33:22.765Z,6.90
2022-11-16T03:36:09.245Z,6.83
2022-11-16T03:38:39.436Z,6.43
2022-11-16T03:41:10.392Z,7.03
2022-11-16T03:43:38.984Z,7.97
2022-11-16T03:46:06.226Z,7.70
2022-11-16T03:48:36.213Z,7.03
2022-11-16T03:51:04.329Z,6.50
2022-11-16T03:53:31.141Z,6.90
2022-11-16T03:55:57.948Z,6.30
2022-11-16T03:58:24.842Z,7.77
2022-11-16T04:00:51.605Z,6.57
2022-11-16T04:03:18.433Z,6.17
2022-11-16T04:06:04.104Z,6.87
2022-11-16T04:08:49.458Z,7.23
2022-11-16T04:11:40.470Z,7.30
2022-11-16T04:14:32.025Z,8.50
2022-11-16T04:17:17.500Z,6.60
2022-11-16T04:20:03.312Z,8.20
2022-11-16T04:22:56.591Z,7.63
2022-11-16T04:25:30.891Z,8.70
2022-11-16T04:28:13.587Z,8.60
2022-11-16T04:31:13.375Z,10.27
2022-11-16T04:33:59.114Z,9.27
2022-11-16T04:36:44.528Z,6.87
2022-11-16T04:39:11.523Z,6.87
2022-11-16T04:41:56.763Z,7.73
2022-11-16T04:44:27.387Z,6.83
2022-11-16T04:47:08.639Z,8.23
2022-11-16T04:49:35.656Z,6.63
2022-11-16T04:52:02.475Z,7.43
2022-11-16T04:54:29.224Z,7.03
2022-11-16T04:56:55.980Z,10.07
2022-11-16T04:59:22.825Z,6.97
2022-11-16T05:02:08.344Z,6.83
2022-11-16T05:04:36.103Z,6.20
2022-11-16T05:07:02.957Z,6.97
2022-11-16T05:09:30.053Z,9.33
2022-11-16T05:11:57.824Z,6.37
2022-11-16T05:14:25.718Z,7.07
2022-11-16T05:16:53.465Z,7.50
2022-11-16T05:19:39.025Z,7.70
2022-11-16T05:22:05.780Z,7.43
2022-11-16T05:24:35.695Z,6.47
2022-11-16T05:27:03.761Z,8.33
2022-11-16T05:29:31.166Z,6.97
2022-11-16T05:31:58.962Z,7.13
2022-11-16T05:34:26.048Z,9.37
2022-11-16T05:36:53.230Z,6.87
2022-11-16T05:39:20.459Z,8.47
2022-11-16T05:41:47.979Z,9.70
2022-11-16T05:44:15.486Z,9.43
2022-11-16T05:46:43.049Z,9.10
2022-11-16T05:49:10.681Z,7.27
2022-11-16T05:51:38.418Z,8.40
2022-11-16T05:54:06.110Z,10.60
2022-11-16T05:56:34.604Z,13.83
2022-11-16T05:59:02.012Z,8.53
2022-11-16T06:01:28.872Z,11.67
2022-11-16T06:03:55.735Z,9.00
2022-11-16T06:06:22.504Z,10.80
2022-11-16T06:08:49.264Z,10.97
2022-11-16T06:11:16.134Z,12.40
2022-11-16T06:13:43.143Z,7.40
2022-11-16T06:16:10.235Z,6.50
2022-11-16T06:18:39.672Z,7.47
2022-11-16T06:21:07.285Z,9.57
2022-11-16T06:23:34.687Z,6.77
2022-11-16T06:26:02.545Z,6.80
2022-11-16T06:28:29.481Z,6.77
2022-11-16T06:30:56.542Z,5.70
2022-11-16T06:33:23.451Z,7.23
2022-11-16T06:35:50.356Z,7.53
2022-11-16T06:38:20.702Z,10.87
2022-11-16T06:40:58.611Z,9.67
2022-11-16T06:43:26.535Z,8.13
2022-11-16T06:45:55.536Z,10.77
2022-11-16T06:48:22.502Z,8.47
2022-11-16T06:50:50.759Z,7.97
2022-11-16T06:53:25.937Z,6.43
2022-11-16T06:55:55.761Z,7.03
2022-11-16T06:58:22.496Z,6.90
2022-11-16T07:00:49.314Z,6.17
2022-11-16T07:03:16.193Z,7.67
2022-11-16T07:05:43.147Z,7.40
2022-11-16T07:08:09.966Z,8.43
2022-11-16T07:10:38.312Z,7.40
2022-11-16T07:13:05.315Z,7.70
2022-11-16T07:15:33.279Z,8.47
2022-11-16T07:18:07.154Z,11.37
2022-11-16T07:20:35.653Z,8.57
2022-11-16T07:23:04.183Z,12.27
2022-11-16T07:25:33.545Z,11.80
2022-11-16T07:28:00.531Z,11.70
2022-11-16T07:30:27.600Z,10.57
2022-11-16T07:32:59.130Z,11.37
2022-11-16T07:35:25.984Z,11.73
2022-11-16T07:37:52.917Z,15.23
2022-11-16T07:40:20.722Z,12.13
2022-11-16T07:42:48.328Z,11.17
2022-11-16T07:45:15.383Z,11.37
2022-11-16T07:47:42.129Z,10.50
2022-11-16T07:50:10.754Z,9.40
2022-11-16T07:52:37.817Z,10.13
2022-11-16T07:55:05.759Z,8.97
2022-11-16T07:57:32.641Z,7.50
2022-11-16T07:59:59.913Z,7.77
2022-11-16T08:02:26.720Z,9.70
2022-11-16T08:04:55.899Z,8.53
2022-11-16T08:07:22.812Z,7.83
2022-11-16T08:09:50.225Z,5.77
2022-11-16T08:12:17.994Z,5.53
2022-11-16T08:14:44.697Z,5.33
2022-11-16T08:17:11.407Z,5.40
2022-11-16T08:19:39.567Z,5.03
2022-11-16T08:22:06.505Z,6.17
2022-11-16T08:24:33.424Z,5.63
2022-11-16T08:27:00.597Z,5.50
2022-11-16T08:29:27.763Z,5.53
2022-11-16T08:31:54.992Z,5.10
2022-11-16T08:34:22.076Z,6.23
2022-11-16T08:36:49.005Z,5.50
2022-11-16T08:39:15.836Z,3.93
2022-11-16T08:41:44.464Z,5.30
2022-11-16T08:44:11.738Z,5.17
2022-11-16T08:46:40.129Z,4.83
2022-11-16T08:49:07.062Z,2.97
2022-11-16T08:51:34.214Z,2.60
2022-11-16T08:54:03.585Z,2.27
2022-11-16T08:56:30.502Z,2.90
2022-11-16T08:58:59.155Z,2.23
2022-11-16T09:01:28.563Z,3.90
2022-11-16T09:03:55.946Z,2.20
2022-11-16T09:06:25.017Z,2.13
2022-11-16T09:08:52.097Z,1.83
2022-11-16T09:11:22.799Z,1.90
2022-11-16T09:13:51.224Z,2.03
2022-11-16T09:16:20.808Z,2.07
2022-11-16T09:18:49.387Z,1.80
2022-11-16T09:21:21.623Z,2.67
2022-11-16T09:23:49.501Z,2.93
2022-11-16T09:26:20.900Z,1.90
2022-11-16T09:28:53.029Z,2.13
2022-11-16T09:31:23.379Z,2.93
2022-11-16T09:33:51.035Z,3.63
2022-11-16T09:36:17.958Z,2.70
2022-11-16T09:39:17.788Z,2.87
2022-11-16T09:41:51.121Z,2.40
2022-11-16T09:44:47.831Z,3.40
2022-11-16T09:47:21.918Z,2.50
2022-11-16T09:49:59.823Z,2.13
2022-11-16T09:52:45.755Z,2.20
2022-11-16T09:55:36.750Z,3.87
2022-11-16T09:58:11.693Z,2.50
2022-11-16T10:00:43.813Z,2.10
2022-11-16T10:03:13.528Z,5.27
2022-11-16T10:06:03.412Z,2.43
2022-11-16T10:08:36.539Z,1.97
2022-11-16T10:11:24.004Z,2.47
2022-11-16T10:14:24.780Z,1.90
2022-11-16T10:17:07.185Z,3.00
2022-11-16T10:19:47.445Z,3.80
2022-11-16T10:22:39.915Z,3.63
2022-11-16T10:25:12.466Z,2.67
2022-11-16T10:27:44.961Z,3.80
2022-11-16T10:30:20.447Z,3.37
2022-11-16T10:32:53.699Z,3.50
2022-11-16T10:35:42.894Z,2.30
2022-11-16T10:38:27.595Z,3.73
2022-11-16T10:41:28.759Z,6.00
2022-11-16T10:43:59.297Z,2.33
2022-11-16T10:46:25.969Z,3.13
2022-11-16T10:49:07.252Z,3.53
2022-11-16T10:51:34.146Z,2.57
2022-11-16T10:54:01.287Z,4.80
2022-11-16T10:56:39.791Z,5.17
2022-11-16T10:59:09.995Z,2.63
2022-11-16T11:01:58.870Z,2.37
2022-11-16T11:04:27.901Z,3.07
2022-11-16T11:07:21.657Z,2.97
2022-11-16T11:09:55.044Z,4.27
2022-11-16T11:12:39.320Z,2.97
2022-11-16T11:15:12.554Z,3.07
2022-11-16T11:17:42.496Z,5.20
2022-11-16T11:20:15.361Z,4.23
2022-11-16T11:22:57.868Z,3.40
2022-11-16T11:25:50.805Z,2.90
2022-11-16T11:28:38.683Z,1.80
2022-11-16T11:31:17.050Z,4.23
2022-11-16T11:33:51.147Z,6.27
2022-11-16T11:36:24.339Z,3.83
2022-11-16T11:39:12.736Z,2.60
2022-11-16T11:41:43.269Z,2.13
2022-11-16T11:44:20.522Z,6.63
2022-11-16T11:49:49.839Z,4.00
2022-11-16T11:52:34.050Z,3.07
2022-11-16T11:55:05.546Z,4.77
2022-11-16T11:57:42.490Z,3.77
2022-11-16T12:00:14.481Z,7.07
2022-11-16T12:03:00.257Z,5.00
2022-11-16T12:05:55.709Z,3.73
2022-11-16T12:08:45.116Z,2.67
2022-11-16T12:11:20.830Z,3.03
2022-11-16T12:13:58.542Z,4.13
2022-11-16T12:17:17.443Z,3.20
2022-11-16T12:19:59.490Z,4.53
2022-11-16T12:22:35.719Z,3.23
2022-11-16T12:25:36.201Z,4.70
2022-11-16T12:28:46.019Z,3.90
2022-11-16T12:31:42.900Z,3.10
2022-11-16T12:34:54.941Z,5.00
2022-11-16T12:37:24.432Z,3.23
2022-11-16T12:40:18.386Z,3.97
2022-11-16T12:42:51.161Z,2.80
2022-11-16T12:45:43.326Z,4.23
2022-11-16T12:48:28.387Z,3.00
2022-11-16T12:51:31.768Z,5.87
2022-11-16T12:54:17.080Z,1.90
2022-11-16T12:56:55.616Z,3.17
2022-11-16T13:00:00.386Z,2.57
2022-11-16T13:02:46.936Z,2.10
2022-11-16T13:05:40.143Z,2.47
2022-11-16T13:08:35.324Z,2.33
2022-11-16T13:11:23.846Z,1.83
2022-11-16T13:13:56.031Z,3.53
2022-11-16T13:16:24.595Z,1.90
2022-11-16T13:18:52.701Z,2.50
2022-11-16T13:21:41.837Z,4.70
2022-11-16T13:24:33.593Z,4.70
2022-11-16T13:27:29.380Z,6.53
2022-11-16T13:30:06.921Z,5.83
2022-11-16T13:32:43.210Z,4.23
2022-11-16T13:35:18.177Z,6.87
2022-11-16T13:37:49.670Z,5.83
2022-11-16T13:40:25.630Z,2.00
2022-11-16T13:43:10.871Z,2.83
2022-11-16T13:45:55.086Z,2.10
2022-11-16T13:48:28.377Z,3.80
2022-11-16T13:50:57.920Z,4.40
2022-11-16T13:54:43.194Z,4.43
2022-11-16T13:56:28.740Z,3.13
2022-11-16T13:58:57.553Z,2.77
2022-11-16T14:01:24.613Z,6.53
2022-11-16T14:04:13.623Z,6.57
2022-11-16T14:06:43.330Z,8.63
2022-11-16T14:10:02.416Z,4.03
2022-11-16T14:12:38.766Z,4.33
2022-11-16T14:15:26.102Z,4.83
2022-11-16T14:17:54.480Z,5.50
2022-11-16T14:20:42.095Z,5.40
2022-11-16T14:23:27.328Z,7.33
2022-11-16T14:26:11.036Z,2.87
2022-11-16T14:28:44.157Z,4.30
2022-11-16T14:31:29.445Z,3.53
2022-11-16T14:33:59.420Z,5.27
2022-11-16T14:36:55.859Z,7.57
2022-11-16T14:39:30.476Z,6.50
2022-11-16T14:42:04.484Z,8.83
2022-11-16T14:44:37.994Z,6.60
2022-11-16T14:47:06.152Z,5.13
2022-11-16T14:49:36.167Z,6.70
2022-11-16T14:52:05.023Z,5.87
2022-11-16T14:54:58.339Z,10.77
2022-11-16T14:57:25.169Z,7.97
2022-11-16T15:00:30.604Z,13.40
2022-11-16T15:03:02.622Z,6.63
2022-11-16T15:05:34.521Z,4.17
2022-11-16T15:08:03.636Z,5.20
2022-11-16T15:10:30.665Z,6.43
2022-11-16T15:12:57.881Z,4.70
2022-11-16T15:15:26.946Z,5.93
2022-11-16T15:18:00.064Z,6.37
2022-11-16T15:20:30.533Z,5.27
2022-11-16T15:22:59.996Z,7.10
2022-11-16T15:25:32.319Z,4.23
2022-11-16T15:28:02.874Z,4.53
2022-11-16T15:30:34.270Z,2.60
2022-11-16T15:33:10.610Z,7.20
2022-11-16T15:35:38.665Z,7.20
2022-11-16T15:38:20.141Z,6.33
2022-11-16T15:40:55.638Z,19.63
2022-11-16T15:43:27.569Z,11.03
2022-11-16T15:45:55.217Z,8.77
2022-11-16T15:48:24.250Z,9.90
2022-11-16T15:51:00.162Z,7.43
2022-11-16T15:53:43.949Z,8.63
2022-11-16T15:56:25.720Z,9.20
2022-11-16T15:58:58.595Z,7.57
2022-11-16T16:01:26.173Z,5.00
2022-11-16T16:04:01.974Z,6.73
2022-11-16T16:06:49.752Z,9.00
2022-11-16T16:09:37.010Z,6.87
2022-11-16T16:12:24.472Z,9.30
2022-11-16T16:14:52.279Z,14.97
2022-11-16T16:17:27.505Z,5.60
2022-11-16T16:20:03.491Z,11.97
2022-11-16T16:22:35.931Z,6.87
2022-11-16T16:25:06.976Z,6.50
2022-11-16T16:27:39.659Z,8.53
2022-11-16T16:30:07.695Z,7.07
2022-11-16T16:32:37.242Z,5.20
2022-11-16T16:35:16.670Z,10.17
2022-11-16T16:37:43.594Z,6.27
2022-11-16T16:40:10.798Z,7.07
2022-11-16T16:42:37.647Z,5.87
2022-11-16T16:45:04.900Z,5.73
2022-11-16T16:47:31.949Z,10.20
2022-11-16T16:49:58.728Z,5.97
2022-11-16T16:52:25.594Z,5.17
2022-11-16T16:54:52.401Z,4.20
2022-11-16T16:57:19.259Z,6.63
2022-11-16T16:59:48.283Z,5.30
2022-11-16T17:02:19.061Z,7.17
2022-11-16T17:04:47.078Z,4.37
2022-11-16T17:07:15.295Z,5.47
2022-11-16T17:09:42.527Z,5.50
2022-11-16T17:12:10.835Z,7.60
2022-11-16T17:14:37.788Z,9.43
2022-11-16T17:17:07.097Z,5.60
2022-11-16T17:19:33.939Z,4.60
2022-11-16T17:22:00.684Z,4.20
2022-11-16T17:24:27.472Z,6.87
2022-11-16T17:26:54.323Z,6.23
2022-11-16T17:29:21.066Z,10.97
2022-11-16T17:31:53.172Z,11.73
2022-11-16T17:34:21.983Z,10.67
2022-11-16T17:36:48.968Z,12.37
2022-11-16T17:39:16.612Z,14.53
2022-11-16T17:41:43.779Z,10.23
2022-11-16T17:44:10.720Z,12.63
2022-11-16T17:46:44.500Z,11.50
2022-11-16T17:49:11.406Z,9.73
2022-11-16T17:51:41.051Z,8.03
2022-11-16T17:54:10.674Z,10.10
2022-11-16T17:56:37.853Z,13.37
2022-11-16T17:59:07.118Z,8.37
2022-11-16T18:01:34.453Z,11.77
2022-11-16T18:04:02.628Z,8.70
2022-11-16T18:06:32.061Z,9.57
2022-11-16T18:08:59.060Z,12.23
2022-11-16T18:11:27.329Z,10.43
2022-11-16T18:13:55.959Z,11.97
2022-11-16T18:16:26.111Z,10.53
2022-11-16T18:19:01.203Z,14.83
2022-11-16T18:21:28.222Z,11.33
2022-11-16T18:23:55.505Z,12.60
2022-11-16T18:26:24.002Z,9.80
2022-11-16T18:28:52.469Z,10.13
2022-11-16T18:31:22.387Z,11.80
2022-11-16T18:33:50.160Z,13.23
2022-11-16T18:36:21.549Z,10.73
2022-11-16T18:38:48.575Z,15.63
2022-11-16T18:41:20.008Z,12.67
2022-11-16T18:43:56.607Z,13.63
2022-11-16T18:46:31.771Z,12.73
2022-11-16T18:48:58.977Z,14.53
2022-11-16T18:51:27.380Z,12.30
2022-11-16T18:53:55.068Z,12.30
2022-11-16T18:56:22.488Z,9.83
2022-11-16T18:58:50.757Z,9.50
2022-11-16T19:01:23.840Z,10.80
2022-11-16T19:03:51.680Z,8.77
2022-11-16T19:06:19.248Z,11.97
2022-11-16T19:08:53.676Z,11.60
2022-11-16T19:11:23.357Z,10.37
2022-11-16T19:13:54.697Z,9.57
2022-11-16T19:16:21.855Z,12.20
2022-11-16T19:18:48.593Z,12.57
2022-11-16T19:21:18.499Z,11.27
2022-11-16T19:23:47.225Z,9.63
2022-11-16T19:26:15.309Z,10.03
2022-11-16T19:28:44.282Z,11.23
2022-11-16T19:31:25.853Z,9.50
2022-11-16T19:34:06.058Z,10.17
2022-11-16T19:36:36.257Z,13.20
2022-11-16T19:39:04.129Z,12.03
2022-11-16T19:41:31.380Z,10.17
2022-11-16T19:44:01.130Z,11.73
2022-11-16T19:46:30.512Z,11.97
2022-11-16T19:48:58.190Z,14.17
2022-11-16T19:51:30.237Z,11.47
2022-11-16T19:53:59.366Z,10.73
2022-11-16T19:56:26.647Z,14.47
2022-11-16T19:58:53.554Z,15.77
2022-11-16T20:01:27.693Z,14.00
2022-11-16T20:03:58.242Z,12.33
2022-11-16T20:06:30.138Z,22.07
2022-11-16T20:09:00.991Z,18.93
2022-11-16T20:11:33.602Z,17.50
2022-11-16T20:14:01.186Z,13.23
2022-11-16T20:16:36.993Z,14.37
2022-11-16T20:19:06.072Z,16.83
2022-11-16T20:21:40.614Z,16.23
2022-11-16T20:24:11.289Z,11.40
2022-11-16T20:26:43.075Z,12.93
2022-11-16T20:29:15.375Z,12.27
2022-11-16T20:31:45.310Z,10.37
2022-11-16T20:34:14.348Z,9.80
2022-11-16T20:36:43.346Z,9.23
2022-11-16T20:39:18.902Z,9.27
2022-11-16T20:41:46.757Z,8.20
2022-11-16T20:44:18.297Z,15.47
2022-11-16T20:46:45.401Z,11.07
2022-11-16T20:49:12.585Z,17.03
2022-11-16T20:51:39.564Z,13.50
2022-11-16T20:54:07.660Z,15.47
2022-11-16T20:56:34.611Z,12.90
2022-11-16T20:59:01.666Z,10.83
2022-11-16T21:01:28.984Z,9.27
2022-11-16T21:03:57.003Z,11.27
2022-11-16T21:06:24.034Z,14.60
2022-11-16T21:08:50.906Z,8.17
2022-11-16T21:11:25.004Z,9.40
2022-11-16T21:14:11.191Z,12.30
2022-11-16T21:16:41.450Z,13.03
2022-11-16T21:19:11.797Z,12.10
2022-11-16T21:21:40.771Z,15.03
2022-11-16T21:24:11.078Z,14.60
2022-11-16T21:26:41.145Z,11.50
2022-11-16T21:29:09.115Z,11.10
2022-11-16T21:31:36.972Z,12.60
2022-11-16T21:34:04.678Z,13.17
2022-11-16T21:36:32.767Z,11.87
2022-11-16T21:38:59.628Z,10.27
2022-11-16T21:41:26.904Z,11.53
2022-11-16T21:43:53.995Z,14.87
2022-11-16T21:46:24.673Z,10.30
2022-11-16T21:48:52.850Z,10.70
2022-11-16T21:51:21.231Z,12.93
2022-11-16T21:53:48.595Z,16.67
2022-11-16T21:56:17.572Z,19.07
2022-11-16T21:58:45.123Z,26.73
2022-11-16T22:01:13.492Z,20.47
2022-11-16T22:03:40.383Z,18.47
2022-11-16T22:06:26.930Z,17.43
2022-11-16T22:08:53.729Z,14.43
2022-11-16T22:11:22.167Z,14.80
2022-11-16T22:13:50.182Z,12.87
2022-11-16T22:16:18.627Z,13.37
2022-11-16T22:18:45.857Z,15.23
2022-11-16T22:21:12.770Z,13.07
2022-11-16T22:23:39.977Z,15.23
2022-11-16T22:26:21.899Z,9.90
2022-11-16T22:28:48.666Z,14.50
2022-11-16T22:31:15.537Z,10.70
2022-11-16T22:33:42.949Z,11.50
2022-11-16T22:36:10.826Z,9.47
2022-11-16T22:38:37.980Z,10.17
2022-11-16T22:41:08.811Z,14.07
2022-11-16T22:43:37.448Z,15.70
2022-11-16T22:46:06.050Z,12.10
2022-11-16T22:48:35.473Z,13.33
2022-11-16T22:51:32.213Z,12.73
2022-11-16T22:54:03.525Z,10.43
2022-11-16T22:56:32.883Z,11.73
2022-11-16T22:59:01.123Z,12.33
2022-11-16T23:01:28.191Z,10.40
2022-11-16T23:03:54.993Z,17.77
2022-11-16T23:06:21.800Z,11.00
2022-11-16T23:08:49.852Z,9.40
2022-11-16T23:11:43.939Z,14.93
2022-11-16T23:14:31.507Z,9.17
2022-11-16T23:16:58.424Z,7.73
2022-11-16T23:19:44.750Z,10.97
2022-11-16T23:22:36.755Z,9.83
2022-11-16T23:25:24.252Z,18.63
2022-11-16T23:28:00.303Z,9.73
2022-11-16T23:30:27.452Z,9.83
2022-11-16T23:32:54.654Z,10.57
2022-11-16T23:35:22.062Z,10.43
2022-11-16T23:38:02.230Z,9.33
2022-11-16T23:40:31.471Z,10.83
2022-11-16T23:43:17.015Z,13.17
2022-11-16T23:45:44.623Z,16.37
2022-11-16T23:48:13.866Z,12.17
2022-11-16T23:50:40.677Z,10.37
2022-11-16T23:53:09.086Z,13.10
2022-11-16T23:55:40.601Z,11.83
2022-11-16T23:58:12.555Z,14.87
